sensor_id;sensor_type;location;lat;lon;timestamp;pressure;altitude;pressure_sealevel;temperature;humidity
7407;BME280;3745;56.964;24.128;2023-03-03T00:01:28;100960.88;;;2.77;100.00
7407;BME280;3745;56.964;24.128;2023-03-03T00:03:55;100921.59;;;2.56;100.00
7407;BME280;3745;56.964;24.128;2023-03-03T00:06:21;100875.94;;;2.41;100.00
7407;BME280;3745;56.964;24.128;2023-03-03T00:08:46;100946.16;;;2.83;100.00
7407;BME280;3745;56.964;24.128;2023-03-03T00:11:12;100914.03;;;2.72;100.00
7407;BME280;3745;56.964;24.128;2023-03-03T00:13:51;100916.31;;;2.86;100.00
7407;BME280;3745;56.964;24.128;2023-03-03T00:16:36;100925.59;;;2.88;100.00
7407;BME280;3745;56.964;24.128;2023-03-03T00:19:04;100858.38;;;2.57;100.00
7407;BME280;3745;56.964;24.128;2023-03-03T00:21:42;100849.44;;;2.62;100.00
7407;BME280;3745;56.964;24.128;2023-03-03T00:24:39;100921.00;;;2.97;100.00
7407;BME280;3745;56.964;24.128;2023-03-03T00:27:18;100908.44;;;2.96;100.00
7407;BME280;3745;56.964;24.128;2023-03-03T00:29:50;100865.94;;;2.77;100.00
7407;BME280;3745;56.964;24.128;2023-03-03T00:32:26;100917.56;;;3.13;100.00
7407;BME280;3745;56.964;24.128;2023-03-03T00:34:55;100838.22;;;2.72;100.00
7407;BME280;3745;56.964;24.128;2023-03-03T00:40:15;100871.47;;;3.08;100.00
7407;BME280;3745;56.964;24.128;2023-03-03T00:42:50;100904.63;;;3.41;100.00
7407;BME280;3745;56.964;24.128;2023-03-03T00:45:29;100913.91;;;3.43;100.00
7407;BME280;3745;56.964;24.128;2023-03-03T00:47:56;100900.50;;;3.41;100.00
7407;BME280;3745;56.964;24.128;2023-03-03T00:50:31;100878.22;;;3.28;100.00
7407;BME280;3745;56.964;24.128;2023-03-03T00:53:03;100914.31;;;3.52;100.00
7407;BME280;3745;56.964;24.128;2023-03-03T00:55:30;100900.75;;;3.47;100.00
7407;BME280;3745;56.964;24.128;2023-03-03T00:57:56;100904.56;;;3.58;100.00
7407;BME280;3745;56.964;24.128;2023-03-03T01:00:22;100897.72;;;3.54;100.00
7407;BME280;3745;56.964;24.128;2023-03-03T01:02:48;100913.50;;;3.72;100.00
7407;BME280;3745;56.964;24.128;2023-03-03T01:05:15;100907.84;;;3.57;100.00
7407;BME280;3745;56.964;24.128;2023-03-03T01:07:41;100901.66;;;3.68;100.00
7407;BME280;3745;56.964;24.128;2023-03-03T01:10:08;100898.47;;;3.72;100.00
7407;BME280;3745;56.964;24.128;2023-03-03T01:12:34;100805.00;;;3.11;100.00
7407;BME280;3745;56.964;24.128;2023-03-03T01:14:59;100876.38;;;3.62;100.00
7407;BME280;3745;56.964;24.128;2023-03-03T01:17:25;100885.06;;;3.70;100.00
7407;BME280;3745;56.964;24.128;2023-03-03T01:19:51;100898.03;;;3.81;100.00
7407;BME280;3745;56.964;24.128;2023-03-03T01:22:16;100896.25;;;3.78;100.00
7407;BME280;3745;56.964;24.128;2023-03-03T01:24:42;100895.47;;;3.79;100.00
7407;BME280;3745;56.964;24.128;2023-03-03T01:27:07;100864.78;;;3.64;100.00
7407;BME280;3745;56.964;24.128;2023-03-03T01:29:33;100895.72;;;3.86;100.00
7407;BME280;3745;56.964;24.128;2023-03-03T01:31:58;100855.81;;;3.69;100.00
7407;BME280;3745;56.964;24.128;2023-03-03T01:34:24;100874.38;;;3.94;100.00
7407;BME280;3745;56.964;24.128;2023-03-03T01:36:49;100744.13;;;3.11;100.00
7407;BME280;3745;56.964;24.128;2023-03-03T01:39:15;100829.63;;;3.61;100.00
7407;BME280;3745;56.964;24.128;2023-03-03T01:41:41;100871.06;;;3.95;100.00
7407;BME280;3745;56.964;24.128;2023-03-03T01:44:15;100826.97;;;3.77;100.00
7407;BME280;3745;56.964;24.128;2023-03-03T01:51:54;100846.88;;;3.95;100.00
7407;BME280;3745;56.964;24.128;2023-03-03T01:54:32;100857.50;;;3.90;100.00
7407;BME280;3745;56.964;24.128;2023-03-03T01:57:02;100857.13;;;3.80;100.00
7407;BME280;3745;56.964;24.128;2023-03-03T01:59:33;100839.78;;;3.64;100.00
7407;BME280;3745;56.964;24.128;2023-03-03T02:02:00;100839.63;;;3.61;100.00
7407;BME280;3745;56.964;24.128;2023-03-03T02:04:26;100797.75;;;3.37;100.00
7407;BME280;3745;56.964;24.128;2023-03-03T02:06:59;100851.38;;;3.62;100.00
7407;BME280;3745;56.964;24.128;2023-03-03T02:12:33;100838.22;;;3.47;100.00
7407;BME280;3745;56.964;24.128;2023-03-03T02:15:00;100822.16;;;3.42;100.00
7407;BME280;3745;56.964;24.128;2023-03-03T02:17:26;100780.97;;;3.15;100.00
7407;BME280;3745;56.964;24.128;2023-03-03T02:23:02;100808.34;;;3.31;100.00
7407;BME280;3745;56.964;24.128;2023-03-03T02:28:22;100833.75;;;3.40;100.00
7407;BME280;3745;56.964;24.128;2023-03-03T02:30:49;100799.13;;;3.11;100.00
7407;BME280;3745;56.964;24.128;2023-03-03T02:33:15;100807.31;;;3.26;100.00
7407;BME280;3745;56.964;24.128;2023-03-03T02:35:41;100813.09;;;3.25;100.00
7407;BME280;3745;56.964;24.128;2023-03-03T02:38:28;100823.22;;;3.28;100.00
7407;BME280;3745;56.964;24.128;2023-03-03T02:41:15;100829.81;;;3.26;100.00
7407;BME280;3745;56.964;24.128;2023-03-03T02:44:05;100803.22;;;3.09;100.00
7407;BME280;3745;56.964;24.128;2023-03-03T02:46:37;100739.28;;;2.76;100.00
7407;BME280;3745;56.964;24.128;2023-03-03T02:49:04;100815.84;;;3.12;100.00
7407;BME280;3745;56.964;24.128;2023-03-03T02:51:30;100778.06;;;2.87;100.00
7407;BME280;3745;56.964;24.128;2023-03-03T02:53:56;100768.06;;;2.87;100.00
7407;BME280;3745;56.964;24.128;2023-03-03T02:56:22;100838.22;;;3.28;100.00
7407;BME280;3745;56.964;24.128;2023-03-03T02:58:48;100831.50;;;3.27;100.00
7407;BME280;3745;56.964;24.128;2023-03-03T03:01:13;100830.72;;;3.28;100.00
7407;BME280;3745;56.964;24.128;2023-03-03T03:03:39;100813.09;;;3.25;100.00
7407;BME280;3745;56.964;24.128;2023-03-03T03:06:05;100773.72;;;3.02;100.00
7407;BME280;3745;56.964;24.128;2023-03-03T03:08:31;100819.13;;;3.30;100.00
7407;BME280;3745;56.964;24.128;2023-03-03T03:10:57;100820.63;;;3.26;100.00
7407;BME280;3745;56.964;24.128;2023-03-03T03:13:23;100746.53;;;2.89;100.00
7407;BME280;3745;56.964;24.128;2023-03-03T03:15:49;100790.97;;;3.15;100.00
7407;BME280;3745;56.964;24.128;2023-03-03T03:18:16;100717.72;;;2.78;100.00
7407;BME280;3745;56.964;24.128;2023-03-03T03:20:42;100797.44;;;3.29;100.00
7407;BME280;3745;56.964;24.128;2023-03-03T03:23:08;100786.50;;;3.27;100.00
7407;BME280;3745;56.964;24.128;2023-03-03T03:25:34;100807.75;;;3.37;100.00
7407;BME280;3745;56.964;24.128;2023-03-03T03:28:02;100804.38;;;3.36;100.00
7407;BME280;3745;56.964;24.128;2023-03-03T03:30:27;100770.97;;;3.15;100.00
7407;BME280;3745;56.964;24.128;2023-03-03T03:32:53;100780.59;;;3.25;100.00
7407;BME280;3745;56.964;24.128;2023-03-03T03:35:18;100694.44;;;2.79;100.00
7407;BME280;3745;56.964;24.128;2023-03-03T03:37:44;100777.97;;;3.22;100.00
7407;BME280;3745;56.964;24.128;2023-03-03T03:40:10;100763.09;;;3.25;100.00
7407;BME280;3745;56.964;24.128;2023-03-03T03:42:36;100771.88;;;3.36;100.00
7407;BME280;3745;56.964;24.128;2023-03-03T03:45:04;100768.47;;;3.34;100.00
7407;BME280;3745;56.964;24.128;2023-03-03T03:47:30;100716.69;;;2.92;100.00
7407;BME280;3745;56.964;24.128;2023-03-03T03:49:55;100752.44;;;3.10;100.00
7407;BME280;3745;56.964;24.128;2023-03-03T03:52:21;100790.06;;;3.32;100.00
7407;BME280;3745;56.964;24.128;2023-03-03T03:54:47;100767.09;;;3.21;100.00
7407;BME280;3745;56.964;24.128;2023-03-03T03:57:12;100784.94;;;3.29;100.00
7407;BME280;3745;56.964;24.128;2023-03-03T03:59:38;100789.94;;;3.29;100.00
7407;BME280;3745;56.964;24.128;2023-03-03T04:02:04;100786.50;;;3.27;100.00
7407;BME280;3745;56.964;24.128;2023-03-03T04:04:29;100681.44;;;2.66;100.00
7407;BME280;3745;56.964;24.128;2023-03-03T04:06:55;100774.81;;;3.26;100.00
7407;BME280;3745;56.964;24.128;2023-03-03T04:09:20;100780.88;;;3.33;100.00
7407;BME280;3745;56.964;24.128;2023-03-03T04:11:46;100785.97;;;3.34;100.00
7407;BME280;3745;56.964;24.128;2023-03-03T04:14:11;100767.31;;;3.26;100.00
7407;BME280;3745;56.964;24.128;2023-03-03T04:16:37;100773.59;;;3.37;100.00
7407;BME280;3745;56.964;24.128;2023-03-03T04:19:03;100753.94;;;3.25;100.00
7407;BME280;3745;56.964;24.128;2023-03-03T04:21:28;100776.88;;;3.36;100.00
7407;BME280;3745;56.964;24.128;2023-03-03T04:23:54;100708.25;;;2.90;100.00
7407;BME280;3745;56.964;24.128;2023-03-03T04:26:20;100778.47;;;3.34;100.00
7407;BME280;3745;56.964;24.128;2023-03-03T04:28:45;100786.63;;;3.30;100.00
7407;BME280;3745;56.964;24.128;2023-03-03T04:31:11;100796.50;;;3.27;100.00
7407;BME280;3745;56.964;24.128;2023-03-03T04:33:36;100798.22;;;3.28;100.00
7407;BME280;3745;56.964;24.128;2023-03-03T04:36:03;100742.84;;;3.00;100.00
7407;BME280;3745;56.964;24.128;2023-03-03T04:38:28;100707.97;;;2.84;100.00
7407;BME280;3745;56.964;24.128;2023-03-03T04:40:55;100765.31;;;3.19;100.00
7407;BME280;3745;56.964;24.128;2023-03-03T04:43:21;100747.56;;;3.13;100.00
7407;BME280;3745;56.964;24.128;2023-03-03T04:45:47;100787.81;;;3.38;100.00
7407;BME280;3745;56.964;24.128;2023-03-03T04:48:12;100785.69;;;3.47;100.00
7407;BME280;3745;56.964;24.128;2023-03-03T04:50:38;100791.47;;;3.46;100.00
7407;BME280;3745;56.964;24.128;2023-03-03T04:53:04;100783.84;;;3.43;100.00
7407;BME280;3745;56.964;24.128;2023-03-03T04:55:30;100790.19;;;3.35;100.00
7407;BME280;3745;56.964;24.128;2023-03-03T04:57:55;100732.19;;;3.04;100.00
7407;BME280;3745;56.964;24.128;2023-03-03T05:00:21;100788.88;;;3.24;100.00
7407;BME280;3745;56.964;24.128;2023-03-03T05:02:47;100796.09;;;3.18;100.00
7407;BME280;3745;56.964;24.128;2023-03-03T05:05:13;100782.56;;;3.13;100.00
7407;BME280;3745;56.964;24.128;2023-03-03T05:07:39;100784.00;;;3.08;100.00
7407;BME280;3745;56.964;24.128;2023-03-03T05:10:07;100778.88;;;3.05;100.00
7407;BME280;3745;56.964;24.128;2023-03-03T05:12:32;100784.13;;;3.11;100.00
7407;BME280;3745;56.964;24.128;2023-03-03T05:14:58;100740.34;;;2.81;100.00
7407;BME280;3745;56.964;24.128;2023-03-03T05:17:24;100797.56;;;3.13;100.00
7407;BME280;3745;56.964;24.128;2023-03-03T05:19:49;100773.88;;;3.05;100.00
7407;BME280;3745;56.964;24.128;2023-03-03T05:22:15;100798.47;;;3.15;100.00
7407;BME280;3745;56.964;24.128;2023-03-03T05:24:40;100767.66;;;2.95;100.00
7407;BME280;3745;56.964;24.128;2023-03-03T05:27:07;100785.31;;;3.00;100.00
7407;BME280;3745;56.964;24.128;2023-03-03T05:29:33;100802.44;;;3.10;100.00
7407;BME280;3745;56.964;24.128;2023-03-03T05:31:59;100804.84;;;3.08;100.00
7407;BME280;3745;56.964;24.128;2023-03-03T05:34:25;100810.72;;;3.09;100.00
7407;BME280;3745;56.964;24.128;2023-03-03T05:36:51;100815.44;;;3.03;100.00
7407;BME280;3745;56.964;24.128;2023-03-03T05:39:16;100810.59;;;3.06;100.00
7407;BME280;3745;56.964;24.128;2023-03-03T05:41:42;100820.44;;;3.03;100.00
7407;BME280;3745;56.964;24.128;2023-03-03T05:44:08;100738.88;;;2.66;100.00
7407;BME280;3745;56.964;24.128;2023-03-03T05:46:33;100798.34;;;2.93;100.00
7407;BME280;3745;56.964;24.128;2023-03-03T05:48:59;100820.31;;;3.00;100.00
7407;BME280;3745;56.964;24.128;2023-03-03T05:51:25;100813.59;;;2.99;100.00
7407;BME280;3745;56.964;24.128;2023-03-03T05:53:50;100806.63;;;2.92;100.00
7407;BME280;3745;56.964;24.128;2023-03-03T05:56:16;100809.50;;;2.82;100.00
7407;BME280;3745;56.964;24.128;2023-03-03T05:58:42;100762.69;;;2.58;100.00
7407;BME280;3745;56.964;24.128;2023-03-03T06:01:08;100806.38;;;2.86;100.00
7407;BME280;3745;56.964;24.128;2023-03-03T06:03:33;100743.09;;;2.48;100.00
7407;BME280;3745;56.964;24.128;2023-03-03T06:05:59;100763.19;;;2.51;100.00
7407;BME280;3745;56.964;24.128;2023-03-03T06:08:25;100787.13;;;2.65;100.00
7407;BME280;3745;56.964;24.128;2023-03-03T06:10:50;100818.06;;;2.87;100.00
7407;BME280;3745;56.964;24.128;2023-03-03T06:13:16;100761.19;;;2.44;100.00
7407;BME280;3745;56.964;24.128;2023-03-03T06:15:41;100814.50;;;2.82;100.00
7407;BME280;3745;56.964;24.128;2023-03-03T06:18:07;100788.97;;;2.69;100.00
7407;BME280;3745;56.964;24.128;2023-03-03T06:20:33;100797.81;;;2.81;100.00
7407;BME280;3745;56.964;24.128;2023-03-03T06:23:00;100702.19;;;2.27;100.00
7407;BME280;3745;56.964;24.128;2023-03-03T06:25:26;100803.91;;;2.87;100.00
7407;BME280;3745;56.964;24.128;2023-03-03T06:27:52;100760.31;;;2.61;100.00
7407;BME280;3745;56.964;24.128;2023-03-03T06:30:18;100807.63;;;2.95;100.00
7407;BME280;3745;56.964;24.128;2023-03-03T06:32:44;100765.13;;;2.76;100.00
7407;BME280;3745;56.964;24.128;2023-03-03T06:35:10;100708.78;;;2.63;100.00
7407;BME280;3745;56.964;24.128;2023-03-03T06:37:36;100767.31;;;3.07;100.00
7407;BME280;3745;56.964;24.128;2023-03-03T06:40:04;100787.81;;;3.19;100.00
7407;BME280;3745;56.964;24.128;2023-03-03T06:42:30;100786.31;;;3.22;100.00
7407;BME280;3745;56.964;24.128;2023-03-03T06:44:56;100757.31;;;3.07;100.00
7407;BME280;3745;56.964;24.128;2023-03-03T06:47:21;100790.06;;;3.32;100.00
7407;BME280;3745;56.964;24.128;2023-03-03T06:49:47;100797.75;;;3.37;100.00
7407;BME280;3745;56.964;24.128;2023-03-03T06:52:18;100779.94;;;3.29;100.00
7407;BME280;3745;56.964;24.128;2023-03-03T06:54:44;100766.63;;;3.30;100.00
7407;BME280;3745;56.964;24.128;2023-03-03T06:57:22;100800.84;;;3.50;100.00
7407;BME280;3745;56.964;24.128;2023-03-03T06:59:52;100796.94;;;3.57;100.00
7407;BME280;3745;56.964;24.128;2023-03-03T07:02:20;100793.97;;;3.46;100.00
7407;BME280;3745;56.964;24.128;2023-03-03T07:04:45;100739.38;;;3.17;100.00
7407;BME280;3745;56.964;24.128;2023-03-03T07:07:19;100802.66;;;3.54;100.00
7407;BME280;3745;56.964;24.128;2023-03-03T07:09:47;100794.34;;;3.55;100.00
7407;BME280;3745;56.964;24.128;2023-03-03T07:12:22;100789.34;;;3.55;100.00
7407;BME280;3745;56.964;24.128;2023-03-03T07:17:45;100750.31;;;3.38;100.00
7407;BME280;3745;56.964;24.128;2023-03-03T07:20:22;100724.22;;;3.33;100.00
7407;BME280;3745;56.964;24.128;2023-03-03T07:22:48;100784.97;;;3.70;100.00
7407;BME280;3745;56.964;24.128;2023-03-03T07:25:29;100797.19;;;3.83;100.00
7407;BME280;3745;56.964;24.128;2023-03-03T07:28:25;100773.47;;;3.75;100.00
7407;BME280;3745;56.964;24.128;2023-03-03T07:30:56;100790.47;;;3.82;100.00
7407;BME280;3745;56.964;24.128;2023-03-03T07:33:34;100798.88;;;3.84;100.00
7407;BME280;3745;56.964;24.128;2023-03-03T07:36:01;100782.72;;;3.76;100.00
7407;BME280;3745;56.964;24.128;2023-03-03T07:38:41;100752.03;;;3.60;100.00
7407;BME280;3745;56.964;24.128;2023-03-03T07:41:16;100692.94;;;3.22;100.00
7407;BME280;3745;56.964;24.128;2023-03-03T07:44:12;100797.19;;;3.83;100.00
7407;BME280;3745;56.964;24.128;2023-03-03T07:46:46;100760.13;;;3.54;100.00
7407;BME280;3745;56.964;24.128;2023-03-03T07:49:35;100808.66;;;3.78;100.00
7407;BME280;3745;56.964;24.128;2023-03-03T07:52:27;100809.03;;;3.88;100.00
7407;BME280;3745;56.964;24.128;2023-03-03T07:54:56;100766.31;;;3.62;100.00
7407;BME280;3745;56.964;24.128;2023-03-03T07:57:34;100813.78;;;3.81;100.00
7407;BME280;3745;56.964;24.128;2023-03-03T08:03:02;100804.25;;;3.73;100.00
7407;BME280;3745;56.964;24.128;2023-03-03T08:05:47;100804.50;;;3.79;100.00
7407;BME280;3745;56.964;24.128;2023-03-03T08:08:34;100810.84;;;3.92;100.00
7407;BME280;3745;56.964;24.128;2023-03-03T08:11:02;100747.59;;;3.54;100.00
7407;BME280;3745;56.964;24.128;2023-03-03T08:13:36;100812.56;;;3.93;100.00
7407;BME280;3745;56.964;24.128;2023-03-03T08:18:57;100794.94;;;3.90;100.00
7407;BME280;3745;56.964;24.128;2023-03-03T08:21:25;100801.78;;;3.94;100.00
7407;BME280;3745;56.964;24.128;2023-03-03T08:23:51;100746.41;;;3.65;100.00
7407;BME280;3745;56.964;24.128;2023-03-03T08:26:22;100784.25;;;3.94;100.00
7407;BME280;3745;56.964;24.128;2023-03-03T08:28:48;100797.56;;;3.93;100.00
7407;BME280;3745;56.964;24.128;2023-03-03T08:31:14;100812.16;;;4.03;100.00
7407;BME280;3745;56.964;24.128;2023-03-03T08:33:42;100793.56;;;3.98;100.00
7407;BME280;3745;56.964;24.128;2023-03-03T08:36:09;100790.56;;;4.06;100.00
7407;BME280;3745;56.964;24.128;2023-03-03T08:38:35;100796.91;;;4.19;100.00
7407;BME280;3745;56.964;24.128;2023-03-03T08:41:03;100722.53;;;3.73;100.00
7407;BME280;3745;56.964;24.128;2023-03-03T08:43:29;100805.81;;;4.33;100.00
7407;BME280;3745;56.964;24.128;2023-03-03T08:45:58;100792.84;;;4.43;100.00
7407;BME280;3745;56.964;24.128;2023-03-03T08:48:25;100703.06;;;3.87;100.00
7407;BME280;3745;56.964;24.128;2023-03-03T08:50:51;100809.81;;;4.50;100.00
7407;BME280;3745;56.964;24.128;2023-03-03T08:53:18;100800.00;;;4.56;100.00
7407;BME280;3745;56.964;24.128;2023-03-03T08:55:44;100805.25;;;4.62;100.00
7407;BME280;3745;56.964;24.128;2023-03-03T08:58:10;100791.72;;;4.57;100.00
7407;BME280;3745;56.964;24.128;2023-03-03T09:00:36;100799.00;;;4.73;100.00
7407;BME280;3745;56.964;24.128;2023-03-03T09:03:03;100787.25;;;4.72;100.00
7407;BME280;3745;56.964;24.128;2023-03-03T09:05:31;100703.47;;;4.20;100.00
7407;BME280;3745;56.964;24.128;2023-03-03T09:07:57;100751.41;;;4.51;100.00
7407;BME280;3745;56.964;24.128;2023-03-03T09:10:26;100808.53;;;4.83;100.00
7407;BME280;3745;56.964;24.128;2023-03-03T09:12:56;100802.16;;;4.91;100.00
7407;BME280;3745;56.964;24.128;2023-03-03T09:15:31;100786.84;;;4.84;100.00
7407;BME280;3745;56.964;24.128;2023-03-03T09:18:18;100798.28;;;5.00;100.00
7407;BME280;3745;56.964;24.128;2023-03-03T09:20:46;100774.28;;;4.82;100.00
7407;BME280;3745;56.964;24.128;2023-03-03T09:23:33;100805.00;;;5.01;100.00
7407;BME280;3745;56.964;24.128;2023-03-03T09:26:23;100739.03;;;4.56;100.00
7407;BME280;3745;56.964;24.128;2023-03-03T09:29:35;100814.94;;;4.98;100.00
7407;BME280;3745;56.964;24.128;2023-03-03T09:31:47;100813.09;;;4.93;100.00
7407;BME280;3745;56.964;24.128;2023-03-03T09:37:11;100764.59;;;4.47;100.00
7407;BME280;3745;56.964;24.128;2023-03-03T09:39:39;100757.66;;;4.40;100.00
7407;BME280;3745;56.964;24.128;2023-03-03T09:45:36;100783.13;;;4.97;100.00
7407;BME280;3745;56.964;24.128;2023-03-03T09:51:06;100822.34;;;4.95;100.00
7407;BME280;3745;56.964;24.128;2023-03-03T09:56:18;100814.94;;;4.98;100.00
7407;BME280;3745;56.964;24.128;2023-03-03T09:59:17;100827.56;;;5.01;100.00
7407;BME280;3745;56.964;24.128;2023-03-03T10:04:39;100805.97;;;5.28;100.00
7407;BME280;3745;56.964;24.128;2023-03-03T10:15:09;100803.25;;;5.22;100.00
7407;BME280;3745;56.964;24.128;2023-03-03T10:18:01;100804.03;;;5.21;100.00
7407;BME280;3745;56.964;24.128;2023-03-03T10:20:41;100800.75;;;5.22;100.00
7407;BME280;3745;56.964;24.128;2023-03-03T10:23:19;100799.34;;;5.30;100.00
7407;BME280;3745;56.964;24.128;2023-03-03T10:25:57;100796.34;;;5.40;100.00
7407;BME280;3745;56.964;24.128;2023-03-03T10:28:49;100814.06;;;5.44;100.00
7407;BME280;3745;56.964;24.128;2023-03-03T10:34:23;100784.59;;;5.39;100.00
7407;BME280;3745;56.964;24.128;2023-03-03T10:39:54;100755.59;;;5.22;100.00
7407;BME280;3745;56.964;24.128;2023-03-03T10:53:40;100782.28;;;5.70;100.00
7407;BME280;3745;56.964;24.128;2023-03-03T11:01:55;100703.75;;;5.47;100.00
7407;BME280;3745;56.964;24.128;2023-03-03T11:04:52;100716.06;;;5.40;100.00
7407;BME280;3745;56.964;24.128;2023-03-03T11:10:00;100772.56;;;5.54;100.00
7407;BME280;3745;56.964;24.128;2023-03-03T11:15:25;100699.09;;;5.33;100.00
7407;BME280;3745;56.964;24.128;2023-03-03T11:24:04;100736.31;;;5.46;100.00
7407;BME280;3745;56.964;24.128;2023-03-03T11:40:58;100700.88;;;5.62;100.00
7407;BME280;3745;56.964;24.128;2023-03-03T11:43:40;100737.63;;;5.85;100.00
7407;BME280;3745;56.964;24.128;2023-03-03T11:46:11;100737.31;;;5.76;100.00
7407;BME280;3745;56.964;24.128;2023-03-03T11:51:53;100735.59;;;5.75;100.00
7407;BME280;3745;56.964;24.128;2023-03-03T11:57:22;100730.78;;;5.81;100.00
7407;BME280;3745;56.964;24.128;2023-03-03T12:02:34;100729.28;;;5.86;100.00
7407;BME280;3745;56.964;24.128;2023-03-03T12:05:13;100729.16;;;5.83;100.00
7407;BME280;3745;56.964;24.128;2023-03-03T12:08:04;100695.47;;;5.77;100.00
7407;BME280;3745;56.964;24.128;2023-03-03T12:16:11;100721.84;;;5.89;100.00
7407;BME280;3745;56.964;24.128;2023-03-03T12:18:55;100709.78;;;5.79;100.00
7407;BME280;3745;56.964;24.128;2023-03-03T12:21:49;100689.72;;;5.54;100.00
7407;BME280;3745;56.964;24.128;2023-03-03T12:27:35;100656.41;;;5.58;100.00
7407;BME280;3745;56.964;24.128;2023-03-03T12:30:31;100694.31;;;5.92;100.00
7407;BME280;3745;56.964;24.128;2023-03-03T12:49:35;100649.94;;;5.66;100.00
7407;BME280;3745;56.964;24.128;2023-03-03T12:55:24;100649.03;;;5.89;100.00
7407;BME280;3745;56.964;24.128;2023-03-03T12:58:06;100645.81;;;5.93;100.00
7407;BME280;3745;56.964;24.128;2023-03-03T13:00:54;100652.34;;;5.88;100.00
7407;BME280;3745;56.964;24.128;2023-03-03T13:03:37;100611.88;;;5.79;100.00
7407;BME280;3745;56.964;24.128;2023-03-03T13:06:41;100630.56;;;5.87;100.00
7407;BME280;3745;56.964;24.128;2023-03-03T13:09:25;100588.13;;;5.68;100.00
7407;BME280;3745;56.964;24.128;2023-03-03T13:17:54;100619.16;;;5.98;100.00
7407;BME280;3745;56.964;24.128;2023-03-03T13:20:30;100620.88;;;5.99;100.00
7407;BME280;3745;56.964;24.128;2023-03-03T13:23:07;100593.97;;;5.95;100.00
7407;BME280;3745;56.964;24.128;2023-03-03T13:31:00;100614.13;;;5.98;100.00
7407;BME280;3745;56.964;24.128;2023-03-03T13:33:34;100608.94;;;5.92;100.00
7407;BME280;3745;56.964;24.128;2023-03-03T13:36:04;100601.81;;;5.79;100.00
7407;BME280;3745;56.964;24.128;2023-03-03T13:38:35;100545.63;;;5.46;100.00
7407;BME280;3745;56.964;24.128;2023-03-03T13:41:13;100596.78;;;5.79;100.00
7407;BME280;3745;56.964;24.128;2023-03-03T13:44:12;100556.84;;;5.85;100.00
7407;BME280;3745;56.964;24.128;2023-03-03T13:52:12;100573.69;;;6.19;100.00
7407;BME280;3745;56.964;24.128;2023-03-03T13:57:48;100527.53;;;5.56;100.00
7407;BME280;3745;56.964;24.128;2023-03-03T14:00:33;100557.91;;;5.65;100.00
7407;BME280;3745;56.964;24.128;2023-03-03T14:05:51;100505.59;;;5.22;100.00
7407;BME280;3745;56.964;24.128;2023-03-03T14:08:31;100549.09;;;5.51;100.00
7407;BME280;3745;56.964;24.128;2023-03-03T14:11:10;100544.16;;;5.54;100.00
7407;BME280;3745;56.964;24.128;2023-03-03T14:13:52;100546.41;;;5.73;100.00
7407;BME280;3745;56.964;24.128;2023-03-03T14:16:48;100546.31;;;5.70;100.00
7407;BME280;3745;56.964;24.128;2023-03-03T14:24:18;100526.50;;;5.79;100.00
7407;BME280;3745;56.964;24.128;2023-03-03T14:26:57;100507.97;;;5.74;100.00
7407;BME280;3745;56.964;24.128;2023-03-03T14:31:57;100512.97;;;5.74;100.00
7407;BME280;3745;56.964;24.128;2023-03-03T14:34:39;100443.28;;;5.36;100.00
7407;BME280;3745;56.964;24.128;2023-03-03T14:37:44;100503.44;;;5.63;100.00
7407;BME280;3745;56.964;24.128;2023-03-03T14:42:55;100500.13;;;5.64;100.00
7407;BME280;3745;56.964;24.128;2023-03-03T14:45:28;100493.97;;;5.54;100.00
7407;BME280;3745;56.964;24.128;2023-03-03T14:47:57;100491.09;;;5.40;100.00
7407;BME280;3745;56.964;24.128;2023-03-03T14:50:38;100422.06;;;4.97;100.00
7407;BME280;3745;56.964;24.128;2023-03-03T14:53:22;100450.47;;;5.24;100.00
7407;BME280;3745;56.964;24.128;2023-03-03T14:56:20;100481.56;;;5.29;100.00
7407;BME280;3745;56.964;24.128;2023-03-03T14:58:48;100482.09;;;5.19;100.00
7407;BME280;3745;56.964;24.128;2023-03-03T15:01:23;100473.72;;;5.18;100.00
7407;BME280;3745;56.964;24.128;2023-03-03T15:04:03;100470.16;;;5.12;100.00
7407;BME280;3745;56.964;24.128;2023-03-03T15:09:24;100462.28;;;5.00;100.00
7407;BME280;3745;56.964;24.128;2023-03-03T15:11:56;100443.38;;;4.82;100.00
7407;BME280;3745;56.964;24.128;2023-03-03T15:14:37;100396.31;;;4.47;100.00
7407;BME280;3745;56.964;24.128;2023-03-03T15:22:54;100372.75;;;4.41;100.00
7407;BME280;3745;56.964;24.128;2023-03-03T15:25:37;100422.31;;;4.77;100.00
7407;BME280;3745;56.964;24.128;2023-03-03T15:30:55;100425.97;;;4.60;100.00
7407;BME280;3745;56.964;24.128;2023-03-03T15:33:38;100376.78;;;4.37;100.00
7407;BME280;3745;56.964;24.128;2023-03-03T15:42:01;100413.44;;;4.60;100.00
7407;BME280;3745;56.964;24.128;2023-03-03T15:52:47;100377.31;;;4.52;100.00
7407;BME280;3745;56.964;24.128;2023-03-03T15:55:55;100356.16;;;4.44;100.00
7407;BME280;3745;56.964;24.128;2023-03-03T16:04:10;100348.22;;;4.57;100.00
7407;BME280;3745;56.964;24.128;2023-03-03T16:15:39;100344.72;;;4.80;100.00
7407;BME280;3745;56.964;24.128;2023-03-03T16:27:36;100333.34;;;4.91;100.00
7407;BME280;3745;56.964;24.128;2023-03-03T16:30:24;100324.91;;;4.89;100.00
7407;BME280;3745;56.964;24.128;2023-03-03T16:33:13;100323.41;;;4.95;100.00
7407;BME280;3745;56.964;24.128;2023-03-03T16:35:55;100231.78;;;4.46;100.00
7407;BME280;3745;56.964;24.128;2023-03-03T16:38:39;100305.72;;;4.90;100.00
7407;BME280;3745;56.964;24.128;2023-03-03T16:41:12;100273.59;;;4.77;100.00
7407;BME280;3745;56.964;24.128;2023-03-03T16:46:37;100300.03;;;4.96;100.00
7407;BME280;3745;56.964;24.128;2023-03-03T16:54:20;100211.03;;;4.50;100.00
7407;BME280;3745;56.964;24.128;2023-03-03T17:21:01;100243.50;;;4.47;100.00
7407;BME280;3745;56.964;24.128;2023-03-03T17:35:53;100201.22;;;4.28;100.00
7407;BME280;3745;56.964;24.128;2023-03-03T17:41:00;100157.06;;;4.02;100.00
7407;BME280;3745;56.964;24.128;2023-03-03T17:43:33;100191.09;;;4.25;100.00
7407;BME280;3745;56.964;24.128;2023-03-03T17:46:03;100191.09;;;4.25;100.00
7407;BME280;3745;56.964;24.128;2023-03-03T17:48:44;100174.06;;;4.12;100.00